createdAt,value
2017-12-08T00:03:56.500Z,98282.93
2017-12-08T00:10:00.008Z,98277.03
2017-12-08T00:16:03.546Z,98273.38
2017-12-08T00:22:07.200Z,98268.81
2017-12-08T00:28:10.961Z,98278.87
2017-12-08T00:34:14.461Z,98264.16
2017-12-08T00:40:17.958Z,98263.95
2017-12-08T00:46:21.818Z,98279.48
2017-12-08T00:52:25.974Z,98296.56
2017-12-08T00:58:29.816Z,98300.92
2017-12-08T01:04:33.507Z,98295.70
2017-12-08T01:10:37.003Z,98298.36
2017-12-08T01:16:41.286Z,98303.54
2017-12-08T01:22:45.720Z,98309.91
2017-12-08T01:28:49.465Z,98311.08
2017-12-08T01:34:53.612Z,98310.44
2017-12-08T01:40:57.696Z,98311.20
2017-12-08T01:47:01.526Z,98309.35
2017-12-08T01:53:05.087Z,98304.52
2017-12-08T01:59:09.056Z,98312.42
2017-12-08T02:05:12.775Z,98321.53
2017-12-08T02:11:16.347Z,98302.06
2017-12-08T02:17:20.018Z,98312.70
2017-12-08T02:23:24.604Z,98314.67
2017-12-08T02:29:28.521Z,98324.84
2017-12-08T02:35:32.044Z,98330.16
2017-12-08T02:41:35.740Z,98338.69
2017-12-08T02:47:39.277Z,98348.58
2017-12-08T02:53:42.806Z,98351.22
2017-12-08T02:59:46.623Z,98345.86
2017-12-08T03:05:51.044Z,98346.08
2017-12-08T03:11:54.635Z,98340.33
2017-12-08T03:17:58.295Z,98342.11
2017-12-08T03:24:02.634Z,98352.59
2017-12-08T03:30:06.167Z,98344.37
2017-12-08T03:36:09.732Z,98355.03
2017-12-08T03:42:13.289Z,98346.98
2017-12-08T03:48:17.228Z,98335.31
2017-12-08T03:54:20.851Z,98349.73
2017-12-08T04:00:25.024Z,98343.02
2017-12-08T04:06:28.635Z,98345.52
2017-12-08T04:12:32.222Z,98349.10
2017-12-08T04:18:36.061Z,98353.67
2017-12-08T04:24:39.606Z,98347.34
2017-12-08T04:30:43.183Z,98347.52
2017-12-08T04:36:46.716Z,98350.36
2017-12-08T04:42:50.510Z,98350.41
2017-12-08T04:48:54.496Z,98345.41
2017-12-08T04:54:58.076Z,98353.23
2017-12-08T05:01:02.395Z,98352.20
2017-12-08T05:07:06.103Z,98347.34
2017-12-08T05:13:10.387Z,98357.13
2017-12-08T05:19:14.004Z,98347.73
2017-12-08T05:25:17.764Z,98356.61
2017-12-08T05:31:21.403Z,98353.16
2017-12-08T05:37:25.547Z,98344.64
2017-12-08T05:43:29.186Z,98374.89
2017-12-08T05:49:33.051Z,98371.66
2017-12-08T05:55:37.582Z,98366.38
2017-12-08T06:01:41.100Z,98369.64
2017-12-08T06:07:44.616Z,98363.82
2017-12-08T06:13:48.950Z,98361.14
2017-12-08T06:19:52.635Z,98355.62
2017-12-08T06:25:56.260Z,98349.47
2017-12-08T06:32:00.185Z,98373.69
2017-12-08T06:38:03.735Z,98378.96
2017-12-08T06:44:08.095Z,98382.61
2017-12-08T06:50:12.730Z,98383.84
2017-12-08T06:56:16.259Z,98370.73
2017-12-08T07:02:19.872Z,98371.27
2017-12-08T07:08:23.464Z,98374.69
2017-12-08T07:14:27.022Z,98371.06
2017-12-08T07:20:30.580Z,98408.66
2017-12-08T07:26:34.295Z,98410.28
2017-12-08T07:32:37.810Z,98413.55
2017-12-08T07:38:41.468Z,98423.63
2017-12-08T07:44:44.989Z,98438.90
2017-12-08T07:50:49.262Z,98436.48
2017-12-08T07:56:53.688Z,98439.58
2017-12-08T08:02:57.775Z,98437.34
2017-12-08T08:09:01.296Z,98439.38
2017-12-08T08:15:04.840Z,98452.34
2017-12-08T08:21:08.395Z,98451.39
2017-12-08T08:27:12.272Z,98459.58
2017-12-08T08:33:16.169Z,98459.57
2017-12-08T08:39:19.703Z,98465.78
2017-12-08T08:45:24.610Z,98469.44
2017-12-08T08:51:28.117Z,98479.48
2017-12-08T08:57:31.792Z,98481.48
2017-12-08T09:03:35.317Z,98488.77
2017-12-08T09:09:38.851Z,98491.70
2017-12-08T09:15:43.134Z,98496.46
2017-12-08T09:21:47.437Z,98501.56
2017-12-08T09:27:51.070Z,98487.50
2017-12-08T09:33:54.613Z,98496.14
2017-12-08T09:39:58.912Z,98489.14
2017-12-08T09:46:02.418Z,98492.59
2017-12-08T09:52:06.054Z,98481.09
2017-12-08T09:58:09.609Z,98483.83
2017-12-08T10:04:13.155Z,98492.66
2017-12-08T10:10:16.664Z,98471.04
2017-12-08T10:16:21.156Z,98466.50
2017-12-08T10:22:25.183Z,98452.27
2017-12-08T10:28:28.859Z,98449.42
2017-12-08T10:34:33.144Z,98444.21
2017-12-08T10:40:37.632Z,98433.38
2017-12-08T10:46:41.204Z,98424.22
2017-12-08T10:52:44.707Z,98425.23
2017-12-08T10:58:48.243Z,98416.06
2017-12-08T11:04:52.733Z,98410.73
2017-12-08T11:10:56.351Z,98401.94
2017-12-08T11:16:59.869Z,98388.20
2017-12-08T11:23:04.484Z,98364.63
2017-12-08T11:29:08.031Z,98362.28
2017-12-08T11:35:11.550Z,98369.48
2017-12-08T11:41:15.883Z,98361.89
2017-12-08T11:47:19.424Z,98342.11
2017-12-08T11:53:22.956Z,98343.09
2017-12-08T11:59:26.484Z,98330.37
2017-12-08T12:05:30.793Z,98308.61
2017-12-08T12:11:34.311Z,98308.14
2017-12-08T12:17:38.908Z,98304.36
2017-12-08T12:23:43.209Z,98303.73
2017-12-08T12:29:46.759Z,98314.83
2017-12-08T12:35:50.449Z,98342.42
2017-12-08T12:41:53.977Z,98348.52
2017-12-08T12:47:57.523Z,98351.34
2017-12-08T12:54:01.135Z,98345.77
2017-12-08T13:00:04.660Z,98340.22
2017-12-08T13:06:08.215Z,98330.23
2017-12-08T13:12:11.752Z,98334.14
2017-12-08T13:18:15.282Z,98322.24
2017-12-08T13:24:19.630Z,98337.60
2017-12-08T13:30:23.559Z,98327.56
2017-12-08T13:36:27.118Z,98321.95
2017-12-08T13:42:30.656Z,98319.51
2017-12-08T13:48:34.166Z,98316.67
2017-12-08T13:54:55.483Z,98318.59
2017-12-08T14:00:59.099Z,98309.52
2017-12-08T14:07:02.671Z,98313.06
2017-12-08T14:13:06.938Z,98324.50
2017-12-08T14:19:10.503Z,98334.34
2017-12-08T14:25:14.766Z,98347.14
2017-12-08T14:31:19.517Z,98362.05
2017-12-08T14:37:23.151Z,98370.16
2017-12-08T14:43:26.720Z,98386.61
2017-12-08T14:49:30.248Z,98395.55
2017-12-08T14:55:33.896Z,98404.16
2017-12-08T15:01:38.202Z,98405.72
2017-12-08T15:07:41.719Z,98417.97
2017-12-08T15:13:46.008Z,98431.00
2017-12-08T15:19:49.519Z,98455.45
2017-12-08T15:25:53.179Z,98469.09
2017-12-08T15:31:56.710Z,98478.64
2017-12-08T15:38:00.203Z,98481.83
2017-12-08T15:44:04.491Z,98487.18
2017-12-08T15:50:08.024Z,98489.02
2017-12-08T15:56:12.334Z,98496.51
2017-12-08T16:02:15.981Z,98503.25
2017-12-08T16:08:19.981Z,98501.53
2017-12-08T16:14:24.833Z,98504.38
2017-12-08T16:26:43.820Z,98514.62
2017-12-08T16:32:47.358Z,98520.62
2017-12-08T16:38:50.890Z,98526.66
2017-12-08T16:44:54.719Z,98520.64
2017-12-08T16:50:58.287Z,98526.36
2017-12-08T16:57:01.836Z,98520.67
2017-12-08T17:03:05.374Z,98530.84
2017-12-08T17:09:08.898Z,98537.04
2017-12-08T17:15:12.477Z,98538.18
2017-12-08T17:21:15.993Z,98544.11
2017-12-08T17:27:19.598Z,98544.13
2017-12-08T17:33:23.394Z,98551.64
2017-12-08T17:39:27.928Z,98556.69
2017-12-08T17:45:31.495Z,98562.88
2017-12-08T17:51:35.039Z,98572.78
2017-12-08T17:57:38.596Z,98567.64
2017-12-08T18:03:42.293Z,98576.59
2017-12-08T18:09:45.966Z,98585.43
2017-12-08T18:15:50.265Z,98584.38
2017-12-08T18:21:54.698Z,98584.50
2017-12-08T18:27:58.249Z,98584.55
2017-12-08T18:34:01.810Z,98584.05
2017-12-08T18:40:06.443Z,98602.38
2017-12-08T18:46:09.991Z,98602.44
2017-12-08T18:52:13.541Z,98618.47
2017-12-08T18:58:17.077Z,98625.36
2017-12-08T19:04:20.628Z,98624.77
2017-12-08T19:10:24.733Z,98634.02
2017-12-08T19:16:28.295Z,98632.17
2017-12-08T19:22:31.980Z,98634.33
2017-12-08T19:28:35.630Z,98622.80
2017-12-08T19:34:39.163Z,98618.83
2017-12-08T19:40:42.711Z,98631.23
2017-12-08T19:46:46.268Z,98630.95
2017-12-08T19:52:49.859Z,98619.36
2017-12-08T19:58:53.706Z,98630.44
2017-12-08T20:04:57.250Z,98628.37
2017-12-08T20:11:00.801Z,98635.50
2017-12-08T20:17:04.364Z,98643.77
2017-12-08T20:23:07.995Z,98645.33
2017-12-08T20:29:11.636Z,98639.66
2017-12-08T20:35:15.236Z,98630.78
2017-12-08T20:41:18.788Z,98624.84
2017-12-08T20:47:22.376Z,98631.75
2017-12-08T20:53:26.103Z,98624.84
2017-12-08T20:59:29.687Z,98619.20
2017-12-08T21:05:33.262Z,98616.38
2017-12-08T21:11:37.569Z,98600.81
2017-12-08T21:17:41.116Z,98598.76
2017-12-08T21:23:44.679Z,98594.08
2017-12-08T21:29:48.236Z,98597.19
2017-12-08T21:35:52.509Z,98596.31
2017-12-08T21:41:56.084Z,98592.59
2017-12-08T21:47:59.659Z,98594.08
2017-12-08T21:54:03.184Z,98584.50
2017-12-08T22:00:06.770Z,98570.63
2017-12-08T22:06:10.448Z,98561.30
2017-12-08T22:12:14.751Z,98556.23
2017-12-08T22:18:18.289Z,98550.81
2017-12-08T22:24:22.038Z,98548.17
2017-12-08T22:30:25.716Z,98545.36
2017-12-08T22:36:29.373Z,98535.53
2017-12-08T22:42:32.992Z,98525.14
2017-12-08T22:48:36.531Z,98515.90
2017-12-08T22:54:40.328Z,98512.25
2017-12-08T23:00:45.574Z,98517.30
2017-12-08T23:06:49.200Z,98513.17
2017-12-08T23:12:53.187Z,98492.77
2017-12-08T23:18:56.777Z,98490.87
2017-12-08T23:25:00.312Z,98479.67
2017-12-08T23:31:04.032Z,98476.91
2017-12-08T23:37:07.656Z,98474.47
2017-12-08T23:43:11.285Z,98473.13
2017-12-08T23:49:14.937Z,98474.63
2017-12-08T23:55:18.725Z,98467.38
